Loisir ou Compétition : Rejoignez un Club de la Fédération

Résultats

SAMSE NATIONAL TOUR Mass start

LA SEIGNE

MASS Dames

Jury de Compétition

Délégué Technique :
FAVROT JEAN PHILIPPE (MJ)
D.T. Adjoint :
FROSSARD CHRISTIAN (SA)
Dir. Epreuve :
ROUSSELET ALEXANDRE (MJ)

Caractéristiques de la Piste

Piste :
Stade de La Seigne
Distance :
10 km
Point Haut :
 
Point Bas :
 
Montée Tot. :
 
Montée Max. :
 
Homologation :
 

Pénalité Appliquée :
13.2200
Coefficient :
1400

Catégorie :
U18->SEN
Style :
C
Clt Dos Clt/Cat Code An Nom Prénom Com Club Temps Ecart Points
Classés
1 3 1/SEN FFS2626761 1993 GODIN MARIE CAROLINE MJ BOIS D'AMONT 27:27.8 00:00.0 13.22
2 5 2/SEN FFS2622862 1993 KROMER MARIE MB PRAZ LYS-SOM 27:28.9 00:01.1 14.15
3 10 3/SEN FFS2613215 1992 PESSEY IRIS MB SC GD BORNAN 28:11.6 00:43.8 50.43
4 4 1/U20 FFS2638587 1996 CLAUDEL DELPHINE MV LA BRESSAUDE 28:16.0 00:48.2 54.17
5 2 4/SEN FFS2266678 1991 COLIN MARION SA CS LA FECLAZ 28:34.2 01:06.4 69.63
6 8 2/U20 FFS2633735 1995 DAMIANI LEA MB VILLARD/BOEG 28:34.6 01:06.8 69.97
7 21 1/U18 FFS2649041 1998 QUINTIN LENA MB SC GD BORNAN 29:02.1 01:34.3 93.34
8 6 5/SEN FFS2620471 1992 LACROIX ROXANE MJ BOIS D'AMONT 29:03.1 01:35.3 94.19
9 9 6/SEN FFS2625590 1994 VULLIET CONSTANCE MB SC GD BORNAN 29:27.6 01:59.8 115.00
10 18 2/U18 FFS2620847 1998 CHAMIOT MAITRAL LAURA SA CS SAISIES 29:33.5 02:05.7 120.02
11 40 3/U20 FFS2644109 1996 COLOMBO CAROLINE MJ A.S MOUTHE 29:43.1 02:15.3 128.17
12 14 4/U20 FFS2615397 1996 VANDERWEYEN LAURA AP GAP-BAYARD 29:49.2 02:21.4 133.36
13 17 3/U18 FFS2638907 1997 GROS CECILE AP ES VALLOUISE 29:54.1 02:26.3 137.52
14 1 7/SEN FFS2265148 1989 SIMILLE MANON SA SC BOZEL 29:56.0 02:28.2 139.13
15 19 5/U20 FFS2637859 1996 BENTZ CORALIE MB VILLARD/BOEG 29:57.9 02:30.1 140.75
16 7 4/U18 FFS2638906 1997 GIRAUD LAURIE AP ES VALLOUISE 30:07.8 02:40.0 149.16
17 63 8/SEN FIS3105133 1991 HICKS ANNIKA Canada 30:11.4 02:43.6 152.22
18 25 9/SEN FFS2613018 1994 DEMANGEAT RACHEL SA CS LA FECLAZ 30:14.4 02:46.6 154.77
19 39 5/U18 FFS2643743 1997 BASTARD ROSSET ISALINE MB SC GD BORNAN 30:16.5 02:48.7 156.55
20 13 6/U18 FFS2639197 1997 CHABRE MANON AP GAP-BAYARD 30:20.8 02:53.0 160.20
21 50 10/SEN FFS2676974 1978 BICOVA KAROLINA MJ CHAUX NEUVE 30:21.7 02:53.9 160.97
22 20 6/U20 FFS2643697 1996 ZAMBAUX LEA MJ OLYMP MT DOR 30:23.3 02:55.5 162.33
23 48 7/U18 FFS2650090 1998 PAULY ELOISE DA SNB CHAMROUS 30:24.3 02:56.5 163.18
24 38 8/U18 FFS2649320 1998 FOURNIER FANNY MB SCNP ROCHOIS 30:24.6 02:56.8 163.43
25 32 7/U20 FFS2638033 1995 BLONDEAU MAELISS MJ SC MONT NOIR 30:27.6 02:59.8 165.98
26 29 9/U18 FFS2632334 1998 SUTTER LORIANE MJ SMBM/MORBIER 30:28.4 03:00.6 166.66
27 23 10/U18 FFS2649232 1998 GILBERT CORA AP SERRE CHEVAL 30:28.8 03:01.0 167.00
28 30 11/U18 FFS2638878 1997 FLOCHON LAURIE SA CS LA FECLAZ 30:29.3 03:01.5 167.43
29 12 8/U20 FFS2626799 1995 YSEBAERT ANAIS AP AS EDELWEISS 30:36.2 03:08.4 173.29
30 28 12/U18 FFS2626100 1997 LOCATELLI EVA DA SA MEAUDRAIS 30:37.9 03:10.1 174.73
31 26 13/U18 FFS2619948 1997 BRON JULIE MB LES GETS S.C 30:43.2 03:15.4 179.24
32 36 14/U18 FFS2649037 1998 PIERREL MARGAUX MB SC GD BORNAN 30:47.8 03:20.0 183.14
33 15 9/U20 FFS2626362 1995 SERCA CECILE AP ES VALLOUISE 30:55.8 03:28.0 189.94
34 59 15/U18 FIS3105213 1997 DUMAIS LAURENCE Canada 30:57.5 03:29.7 191.38
35 33 16/U18 FFS2649316 1998 VULLIET SOLENE MB SCNP ROCHOIS 30:58.3 03:30.5 192.06
36 16 11/SEN FFS2619875 1994 TRUJON ANDREA MJ PREMANON SC 30:58.6 03:30.8 192.32
37 31 17/U18 FFS2643589 1998 CHALIVET AMELIE SA MONOLITHE SF 31:19.2 03:51.4 209.82
38 27 10/U20 FFS2654516 1996 TOURNAY FANNY SA CS LA FECLAZ 31:22.4 03:54.6 212.54
39 43 18/U18 FFS2652903 1997 SALVI LAURA MJ A.S MOUTHE 31:29.4 04:01.6 218.49
40 34 19/U18 FFS2649305 1997 SANDOZ JUSTINE MJ AS VERRIERES 31:36.4 04:08.6 224.43
41 41 20/U18 FFS2628759 1997 LYAUDET MARGOT LY US CORMARANC 31:39.1 04:11.3 226.73
42 45 11/U20 FFS2631420 1996 HOURS BERANGERE SA CS LA FECLAZ 31:51.2 04:23.4 237.01
43 24 12/SEN FFS2628103 1994 PETITJEAN MATHILDE MB SCNP ROCHOIS 32:07.3 04:39.5 250.69
44 46 21/U18 FFS2649036 1998 PESSEY LOTUS MB SC GD BORNAN 32:31.8 05:04.0 271.50
45 22 12/U20 FFS2631636 1996 BARTHELEMY KATIA AP ES VALLOUISE 32:42.0 05:14.2 280.17
46 44 13/U20 FFS2603113 1995 PERRILLAT AMEDE MAILYS SA CS LA FECLAZ 32:43.9 05:16.1 281.78
47 35 14/U20 FFS2632062 1996 GOALABRE LOUISE AP SC QUEYRAS 32:46.8 05:19.0 284.25
48 65 22/U18 FIS3105242 1997 TURCOT LAUREN Canada 32:50.1 05:22.3 287.05
49 62 23/U18 FIS3105235 1997 ROGERS MORGAN Canada 33:10.3 05:42.5 304.21
50 47 24/U18 FFS2621752 1997 ABOULY KAYLA SA SC MENUIRES 33:13.8 05:46.0 307.19
51 51 25/U18 FFS2649507 1998 LAMBERT JENNIFER SA CS LA FECLAZ 33:15.0 05:47.2 308.21
52 53 26/U18 FFS2623256 1998 PAGET JULIE MJ SMBM/MORBIER 33:21.3 05:53.5 313.56
53 49 15/U20 FFS2638939 1996 GOCYK ANGELE LY CS VALROMEY 33:43.7 06:15.9 332.59
54 42 27/U18 FFS2644183 1998 PELLEGRIN LISA AP SC QUEYRAS 33:48.3 06:20.5 336.50
55 57 28/U18 FFS2650487 1998 MAIRE FLORINE MJ SC FRASNE DR 34:17.9 06:50.1 361.65
56 54 29/U18 FFS2639332 1998 VOLTA JULIE MJ HT JURA SKI 34:20.8 06:53.0 364.11
57 61 30/U18 FIS3105237 1998 STRUM MOLLY JANE Canada 34:44.2 07:16.4 383.99
58 60 31/U18 FIS3105241 1998 TURCOT GEORGIA Canada 35:00.1 07:32.3 397.50
59 55 32/U18 FFS2633473 1998 TURMEL MARIE MJ VAL MORTEAU 35:09.1 07:41.3 405.15
60 52 33/U18 FFS2650697 1997 VITTE JULIETTE MJ OYE-PALLET 36:10.4 08:42.6 457.23
61 58 34/U18 FFS2656472 1998 MALFROY MARGOT MJ OYE-PALLET 36:52.0 09:24.2 492.57
Abandons
11 FFS2617672 1994 CHOPARD LALLIER CELINE MJ VAL MORTEAU
37 FFS2647377 1996 LAURENCE CLEMENTINE MJ CSR PONTARLI
56 FFS2654706 1998 QUEVARREC SOLENE MJ ES SAUGETTE
Non partants
64 FIS3105238 1997 PHILIPS EMMY Canada